Terminal Aerodrome Forecast
Issued by NWS

Home | Current Version | Previous Version | Text Only | Print | Product List | Glossary On
Versions: 1 2 3 4 5 6 7 8 9 10 11 12 13 14 15 16 17 18 19 20 21 22 23 24 25 26 27 28 29 30
000
FTUS45 KTWC 202122 AAA
TAFOLS
TAF AMD
KOLS 202122Z 2021/2118 20015G25KT P6SM VCSH SCT020 OVC035
      TEMPO 2021/2101 4SM SHRA BKN018 OVC030
     FM210300 19030G40KT P6SM RA OVC020
     FM211500 21020G30KT P6SM VCSH BKN025 OVC040=

USA.gov is the U.S. government's official web portal to all federal, state and local government web resources and services.